Archival Weather

Chicago O'Hare International

Chicago, Illinois (KORD)

Report from: Friday, December 23, 2022 9:51 PM CST
Current time: Monday, June 17, 2024 1:31 AM CDT

Current weather – Weather history – Daily summaries
Weather forecast

Present weatherBlowing snow
Temperature-18.9°C (-2.0°F)
Wind chill-31.0°C (-23.9°F)
Dew point-23.9°C (-11.0°F)
Winds 16 kts (8.2 m/s, 18.4 mph) West (260°)
Wind gusts 31 kts (15.9 m/s, 35.7 mph)
Peak wind 35 kts (18 m/s, 40.3 mph) West (260°) at 03:33
Visibility4 mi. (6.4 km)
Clouds Ceiling: Overcast 1,900 ft. (579 m)
Altimeter29.85 in.Hg (1011 mB)
Relative humidity64 %
Density altitude-4,294 ft. (-1,309 m)
Sea-level pressure101.3 kPa (1013 mB, 29.91 in.Hg)
Remarks System requires maintenance
Automated weather observing station with precipitation discriminator
Flight conditions Marginal Visual Meteorological Conditions
Raw dataKORD 240351Z 26016G31KT 4SM BLSN OVC019 M19/M24 A2985 RMK AO2 PK WND 26035/0333 SLP128 DRSN T11891239 $
An error has occurred. This application may no longer respond until reloaded. Reload 🗙